Terminal Aerodrome Forecast
Issued by NWS

Home | Current Version | Previous Version | Text Only | Print | Product List | Glossary On
Versions: 1 2 3 4 5 6 7 8 9 10 11 12 13
000
FTUS45 KLKN 232344
TAFEKO
TAF
KEKO 232344Z 2400/2424 23010G17KT P6SM VCTS SCT080CB BKN100
     FM240500 VRB03KT P6SM FEW080 SCT100
     FM241900 23008KT P6SM FEW100=

USA.gov is the U.S. government's official web portal to all federal, state and local government web resources and services.